createdAt,value
2023-05-18T00:00:17.340Z,5.20
2023-05-18T00:03:23.277Z,4.90
2023-05-18T00:06:26.042Z,4.85
2023-05-18T00:09:37.323Z,4.90
2023-05-18T00:12:39.674Z,5.27
2023-05-18T00:15:42.052Z,4.75
2023-05-18T00:18:47.452Z,4.80
2023-05-18T00:22:00.127Z,5.28
2023-05-18T00:25:06.981Z,4.65
2023-05-18T00:28:09.921Z,5.03
2023-05-18T00:31:16.055Z,4.60
2023-05-18T00:34:20.773Z,5.27
2023-05-18T00:37:23.883Z,4.68
2023-05-18T00:40:32.053Z,4.57
2023-05-18T00:43:37.455Z,5.40
2023-05-18T00:46:44.123Z,4.80
2023-05-18T00:49:47.204Z,4.90
2023-05-18T00:52:53.987Z,4.70
2023-05-18T00:55:57.621Z,5.43
2023-05-18T00:59:02.311Z,4.93
2023-05-18T01:02:06.373Z,5.20
2023-05-18T01:05:19.355Z,4.80
2023-05-18T01:08:28.249Z,4.35
2023-05-18T01:12:08.506Z,5.10
2023-05-18T01:15:18.661Z,4.33
2023-05-18T01:18:32.925Z,4.90
2023-05-18T01:21:56.359Z,5.05
2023-05-18T01:25:32.910Z,4.97
2023-05-18T01:28:40.624Z,4.43
2023-05-18T01:31:46.185Z,4.85
2023-05-18T01:34:51.515Z,5.15
2023-05-18T01:37:54.778Z,4.80
2023-05-18T01:41:10.349Z,4.93
2023-05-18T01:44:29.755Z,4.90
2023-05-18T01:47:37.010Z,4.63
2023-05-18T01:50:47.243Z,5.28
2023-05-18T01:54:05.429Z,4.78
2023-05-18T01:57:21.494Z,4.88
2023-05-18T02:00:28.163Z,4.63
2023-05-18T02:03:32.672Z,5.10
2023-05-18T02:06:39.474Z,5.00
2023-05-18T02:09:45.134Z,4.90
2023-05-18T02:12:53.444Z,4.90
2023-05-18T02:15:58.372Z,4.78
2023-05-18T02:19:03.559Z,4.93
2023-05-18T02:22:11.140Z,4.78
2023-05-18T02:25:13.933Z,5.30
2023-05-18T02:28:17.264Z,4.90
2023-05-18T02:31:20.306Z,4.75
2023-05-18T02:34:24.802Z,4.97
2023-05-18T02:37:29.241Z,4.90
2023-05-18T02:40:31.948Z,4.73
2023-05-18T02:43:41.250Z,4.47
2023-05-18T02:46:45.241Z,4.75
2023-05-18T02:49:49.669Z,5.30
2023-05-18T02:52:52.856Z,4.82
2023-05-18T02:55:59.452Z,5.00
2023-05-18T02:59:09.015Z,5.00
2023-05-18T03:02:19.591Z,5.38
2023-05-18T03:05:23.999Z,4.68
2023-05-18T03:08:31.603Z,5.20
2023-05-18T03:11:36.083Z,4.77
2023-05-18T03:14:42.016Z,5.07
2023-05-18T03:17:46.475Z,5.20
2023-05-18T03:20:52.382Z,4.90
2023-05-18T03:23:57.086Z,4.78
2023-05-18T03:27:01.188Z,5.10
2023-05-18T03:30:11.252Z,5.28
2023-05-18T03:33:16.386Z,4.97
2023-05-18T03:36:19.066Z,4.85
2023-05-18T03:39:26.803Z,5.13
2023-05-18T03:42:30.494Z,4.80
2023-05-18T03:45:37.400Z,4.65
2023-05-18T03:48:44.102Z,5.05
2023-05-18T03:51:47.676Z,4.53
2023-05-18T03:54:54.492Z,5.00
2023-05-18T03:58:01.200Z,4.75
2023-05-18T04:01:04.912Z,5.13
2023-05-18T04:04:10.342Z,4.85
2023-05-18T04:07:18.646Z,5.20
2023-05-18T04:10:25.668Z,5.38
2023-05-18T04:13:47.130Z,4.77
2023-05-18T04:16:49.659Z,5.13
2023-05-18T04:19:59.017Z,5.05
2023-05-18T04:23:05.820Z,5.30
2023-05-18T04:26:09.993Z,5.50
2023-05-18T04:29:24.265Z,5.35
2023-05-18T04:32:28.548Z,5.30
2023-05-18T04:35:32.321Z,5.13
2023-05-18T04:38:39.526Z,5.32
2023-05-18T04:41:42.972Z,5.13
2023-05-18T04:44:49.017Z,5.57
2023-05-18T04:47:57.032Z,5.30
2023-05-18T04:50:59.689Z,5.50
2023-05-18T04:54:07.869Z,5.80
2023-05-18T04:57:15.386Z,5.32
2023-05-18T05:00:19.484Z,5.20
2023-05-18T05:03:23.163Z,5.40
2023-05-18T05:06:30.351Z,5.55
2023-05-18T05:09:43.651Z,5.18
2023-05-18T05:12:49.195Z,5.13
2023-05-18T05:15:56.315Z,5.57
2023-05-18T05:19:02.903Z,5.47
2023-05-18T05:22:09.534Z,5.18
2023-05-18T05:25:13.925Z,5.13
2023-05-18T05:28:18.405Z,5.30
2023-05-18T05:31:21.437Z,5.18
2023-05-18T05:34:28.203Z,5.32
2023-05-18T05:37:37.582Z,5.18
2023-05-18T05:40:43.309Z,5.15
2023-05-18T05:43:49.263Z,5.20
2023-05-18T05:46:53.636Z,4.87
2023-05-18T05:49:56.090Z,5.13
2023-05-18T05:53:04.327Z,5.57
2023-05-18T05:56:11.607Z,5.20
2023-05-18T05:59:17.748Z,5.22
2023-05-18T06:02:20.607Z,5.38
2023-05-18T06:05:23.898Z,5.18
2023-05-18T06:08:27.609Z,5.22
2023-05-18T06:11:31.988Z,5.30
2023-05-18T06:14:33.884Z,5.40
2023-05-18T06:17:36.355Z,4.87
2023-05-18T06:20:38.990Z,5.30
2023-05-18T06:23:42.246Z,5.07
2023-05-18T06:27:08.682Z,5.00
2023-05-18T06:30:14.209Z,5.25
2023-05-18T06:33:40.417Z,5.00
2023-05-18T06:36:42.259Z,4.90
2023-05-18T06:39:44.464Z,5.25
2023-05-18T06:42:46.295Z,4.80
2023-05-18T06:46:07.938Z,5.07
2023-05-18T06:49:13.550Z,5.03
2023-05-18T06:52:15.774Z,5.15
2023-05-18T06:55:19.234Z,4.72
2023-05-18T06:58:21.554Z,5.13
2023-05-18T07:01:24.398Z,5.10
2023-05-18T07:04:29.679Z,4.75
2023-05-18T07:07:34.102Z,5.00
2023-05-18T07:10:38.701Z,4.53
2023-05-18T07:13:41.334Z,4.70
2023-05-18T07:16:48.861Z,5.00
2023-05-18T07:19:56.299Z,4.27
2023-05-18T07:22:58.540Z,4.70
2023-05-18T07:26:04.541Z,4.70
2023-05-18T07:29:10.199Z,4.70
2023-05-18T07:32:14.475Z,4.88
2023-05-18T07:35:20.646Z,4.38
2023-05-18T07:38:22.589Z,4.75
2023-05-18T07:41:29.799Z,4.60
2023-05-18T07:44:33.865Z,4.60
2023-05-18T07:47:36.965Z,4.13
2023-05-18T07:50:45.549Z,4.63
2023-05-18T07:53:54.867Z,4.30
2023-05-18T07:57:00.871Z,4.15
2023-05-18T08:00:07.946Z,3.63
2023-05-18T08:03:16.499Z,3.80
2023-05-18T08:06:23.505Z,3.78
2023-05-18T08:09:26.259Z,3.85
2023-05-18T08:12:30.154Z,4.13
2023-05-18T08:15:32.515Z,4.40
2023-05-18T08:18:37.462Z,3.95
2023-05-18T08:21:41.560Z,4.00
2023-05-18T08:24:45.465Z,4.18
2023-05-18T08:27:51.624Z,3.70
2023-05-18T08:30:56.647Z,4.03
2023-05-18T08:34:04.775Z,3.80
2023-05-18T08:37:08.250Z,3.78
2023-05-18T08:40:15.156Z,3.42
2023-05-18T08:43:33.640Z,3.30
2023-05-18T08:46:50.507Z,3.58
2023-05-18T08:49:56.608Z,3.50
2023-05-18T08:53:06.720Z,3.53
2023-05-18T08:56:12.598Z,3.45
2023-05-18T08:59:33.221Z,3.28
2023-05-18T09:02:43.672Z,4.20
2023-05-18T09:05:51.124Z,5.93
2023-05-18T09:08:54.206Z,4.43
2023-05-18T09:12:01.273Z,5.55
2023-05-18T09:15:17.900Z,4.82
2023-05-18T09:18:22.200Z,3.67
2023-05-18T09:21:31.540Z,3.50
2023-05-18T09:24:34.603Z,3.38
2023-05-18T09:27:41.642Z,3.50
2023-05-18T09:30:46.720Z,3.90
2023-05-18T09:33:51.798Z,3.38
2023-05-18T09:36:57.753Z,2.97
2023-05-18T09:40:05.320Z,3.33
2023-05-18T09:43:11.625Z,3.00
2023-05-18T09:46:14.622Z,3.60
2023-05-18T09:49:23.759Z,3.07
2023-05-18T09:52:28.287Z,3.05
2023-05-18T09:55:32.983Z,3.50
2023-05-18T09:58:43.637Z,3.85
2023-05-18T10:02:03.123Z,3.50
2023-05-18T10:05:19.368Z,3.38
2023-05-18T10:08:21.505Z,4.30
2023-05-18T10:11:24.356Z,3.70
2023-05-18T10:14:31.605Z,3.90
2023-05-18T10:17:34.533Z,4.18
2023-05-18T10:20:36.894Z,3.75
2023-05-18T10:23:41.811Z,3.40
2023-05-18T10:26:45.705Z,3.13
2023-05-18T10:29:50.837Z,3.40
2023-05-18T10:32:55.106Z,3.60
2023-05-18T10:35:58.670Z,3.38
2023-05-18T10:39:02.890Z,3.43
2023-05-18T10:42:09.308Z,3.30
2023-05-18T10:45:12.047Z,3.15
2023-05-18T10:48:18.165Z,3.00
2023-05-18T10:51:21.409Z,3.15
2023-05-18T10:54:23.707Z,3.40
2023-05-18T10:57:28.185Z,3.20
2023-05-18T11:00:35.338Z,3.08
2023-05-18T11:03:41.369Z,3.30
2023-05-18T11:06:43.217Z,2.77
2023-05-18T11:09:48.862Z,3.20
2023-05-18T11:12:51.381Z,3.30
2023-05-18T11:15:53.598Z,3.20
2023-05-18T11:19:07.334Z,2.90
2023-05-18T11:22:12.728Z,3.13
2023-05-18T11:25:32.610Z,3.10
2023-05-18T11:28:43.112Z,3.08
2023-05-18T11:31:46.899Z,3.10
2023-05-18T11:34:53.795Z,3.20
2023-05-18T11:37:55.845Z,3.28
2023-05-18T11:40:59.528Z,3.05
2023-05-18T11:44:16.565Z,3.13
2023-05-18T11:47:18.902Z,3.00
2023-05-18T11:50:21.388Z,2.97
2023-05-18T11:53:25.539Z,3.20
2023-05-18T11:56:33.451Z,3.10
2023-05-18T11:59:41.126Z,3.37
2023-05-18T12:02:51.302Z,3.80
2023-05-18T12:05:57.869Z,3.10
2023-05-18T12:09:00.923Z,3.58
2023-05-18T12:12:03.624Z,3.27
2023-05-18T12:15:09.620Z,3.72
2023-05-18T12:18:14.773Z,3.65
2023-05-18T12:21:25.221Z,3.20
2023-05-18T12:24:26.855Z,3.00
2023-05-18T12:27:29.329Z,3.23
2023-05-18T12:30:38.449Z,2.97
2023-05-18T12:33:40.122Z,3.40
2023-05-18T12:36:53.734Z,3.10
2023-05-18T12:39:55.813Z,3.17
2023-05-18T12:42:59.831Z,3.25
2023-05-18T12:46:02.784Z,2.95
2023-05-18T12:49:06.290Z,3.40
2023-05-18T12:52:13.589Z,3.15
2023-05-18T12:55:21.818Z,3.10
2023-05-18T12:58:24.802Z,3.17
2023-05-18T13:01:29.333Z,2.90
2023-05-18T13:04:43.986Z,2.95
2023-05-18T13:07:46.427Z,3.22
2023-05-18T13:11:01.113Z,3.50
2023-05-18T13:14:10.635Z,2.92
2023-05-18T13:17:22.674Z,3.08
2023-05-18T13:20:36.545Z,2.83
2023-05-18T13:23:39.438Z,3.20
2023-05-18T13:26:41.167Z,2.60
2023-05-18T13:29:45.382Z,2.97
2023-05-18T13:32:47.751Z,2.92
2023-05-18T13:35:51.112Z,2.90
2023-05-18T13:38:53.059Z,3.15
2023-05-18T13:41:55.500Z,2.90
2023-05-18T13:44:57.623Z,3.17
2023-05-18T13:48:03.662Z,2.92
2023-05-18T13:51:06.303Z,3.10
2023-05-18T13:54:08.223Z,2.80
2023-05-18T13:57:10.053Z,3.03
2023-05-18T14:00:13.847Z,2.95
2023-05-18T14:03:20.921Z,2.95
2023-05-18T14:06:23.289Z,3.28
2023-05-18T14:09:29.767Z,3.00
2023-05-18T14:12:32.447Z,3.83
2023-05-18T14:15:35.824Z,3.20
2023-05-18T14:18:38.971Z,2.90
2023-05-18T14:21:42.196Z,3.00
2023-05-18T14:24:43.987Z,3.08
2023-05-18T14:27:46.125Z,3.10
2023-05-18T14:30:48.228Z,2.90
2023-05-18T14:33:50.832Z,3.10
2023-05-18T14:36:53.150Z,2.90
2023-05-18T14:39:54.867Z,3.03
2023-05-18T14:42:56.894Z,3.33
2023-05-18T14:46:08.248Z,2.95
2023-05-18T14:49:12.180Z,3.40
2023-05-18T14:52:15.619Z,3.00
2023-05-18T14:55:19.619Z,2.80
2023-05-18T14:58:22.387Z,2.95
2023-05-18T15:01:24.517Z,2.80
2023-05-18T15:04:28.103Z,2.95
2023-05-18T15:07:30.360Z,3.28
2023-05-18T15:10:32.956Z,2.73
2023-05-18T15:13:34.793Z,2.72
2023-05-18T15:16:37.488Z,2.95
2023-05-18T15:19:39.799Z,2.80
2023-05-18T15:22:41.905Z,2.90
2023-05-18T15:25:43.590Z,2.67
2023-05-18T15:28:47.346Z,2.90
2023-05-18T15:31:51.165Z,3.00
2023-05-18T15:34:53.463Z,2.88
2023-05-18T15:37:55.934Z,3.05
2023-05-18T15:40:58.659Z,2.70
2023-05-18T15:44:02.037Z,3.10
2023-05-18T15:47:05.131Z,3.30
2023-05-18T15:50:07.327Z,4.18
2023-05-18T15:53:10.141Z,3.00
2023-05-18T15:56:12.302Z,3.07
2023-05-18T15:59:14.313Z,3.08
2023-05-18T16:02:16.250Z,2.78
2023-05-18T16:05:17.975Z,2.80
2023-05-18T16:08:20.636Z,2.70
2023-05-18T16:11:23.063Z,2.70
2023-05-18T16:14:24.754Z,2.88
2023-05-18T16:17:26.619Z,2.60
2023-05-18T16:20:31.600Z,2.70
2023-05-18T16:23:33.482Z,2.90
2023-05-18T16:26:36.794Z,3.22
2023-05-18T16:29:41.540Z,3.25
2023-05-18T16:32:44.502Z,4.07
2023-05-18T16:35:46.764Z,3.83
2023-05-18T16:38:52.294Z,3.43
2023-05-18T16:41:53.943Z,3.35
2023-05-18T16:44:56.011Z,4.57
2023-05-18T16:48:00.254Z,3.28
2023-05-18T16:51:07.017Z,2.90
2023-05-18T16:54:09.929Z,3.10
2023-05-18T16:57:13.590Z,3.10
2023-05-18T17:00:19.510Z,3.55
2023-05-18T17:03:22.302Z,3.10
2023-05-18T17:06:25.446Z,3.40
2023-05-18T17:09:27.185Z,2.85
2023-05-18T17:12:29.054Z,3.10
2023-05-18T17:15:32.138Z,2.80
2023-05-18T17:18:33.917Z,3.10
2023-05-18T17:21:36.531Z,3.00
2023-05-18T17:24:38.652Z,3.20
2023-05-18T17:27:40.875Z,3.20
2023-05-18T17:30:42.716Z,3.57
2023-05-18T17:33:47.413Z,3.20
2023-05-18T17:36:49.972Z,3.03
2023-05-18T17:39:52.000Z,3.30
2023-05-18T17:42:54.241Z,2.80
2023-05-18T17:46:00.212Z,2.78
2023-05-18T17:49:06.674Z,2.95
2023-05-18T17:52:09.533Z,3.17
2023-05-18T17:55:13.064Z,3.15
2023-05-18T17:58:15.182Z,3.30
2023-05-18T18:01:17.516Z,3.17
2023-05-18T18:04:20.223Z,3.00
2023-05-18T18:07:22.498Z,3.40
2023-05-18T18:10:27.006Z,3.20
2023-05-18T18:13:28.685Z,3.60
2023-05-18T18:16:30.869Z,3.83
2023-05-18T18:19:32.549Z,3.53
2023-05-18T18:22:35.808Z,3.35
2023-05-18T18:25:37.772Z,3.47
2023-05-18T18:28:41.082Z,3.20
2023-05-18T18:31:43.068Z,3.30
2023-05-18T18:34:44.743Z,3.72
2023-05-18T18:37:48.969Z,3.60
2023-05-18T18:40:51.241Z,3.60
2023-05-18T18:43:54.774Z,3.50
2023-05-18T18:46:56.559Z,3.50
2023-05-18T18:49:58.700Z,3.30
2023-05-18T18:53:00.386Z,3.30
2023-05-18T18:56:04.114Z,3.50
2023-05-18T18:59:06.171Z,3.50
2023-05-18T19:02:08.720Z,3.47
2023-05-18T19:05:10.861Z,3.50
2023-05-18T19:08:12.609Z,3.30
2023-05-18T19:11:15.314Z,3.65
2023-05-18T19:14:17.429Z,3.45
2023-05-18T19:17:19.272Z,3.60
2023-05-18T19:20:22.696Z,3.92
2023-05-18T19:23:24.791Z,3.70
2023-05-18T19:26:28.372Z,3.70
2023-05-18T19:29:31.968Z,3.70
2023-05-18T19:32:34.032Z,3.40
2023-05-18T19:35:37.035Z,3.47
2023-05-18T19:38:39.346Z,3.45
2023-05-18T19:41:40.891Z,3.10
2023-05-18T19:44:43.017Z,3.10
2023-05-18T19:47:45.137Z,2.88
2023-05-18T19:50:46.750Z,3.13
2023-05-18T19:53:48.397Z,3.20
2023-05-18T19:56:52.113Z,3.08
2023-05-18T19:59:53.787Z,2.97
2023-05-18T20:02:55.707Z,3.20
2023-05-18T20:05:58.106Z,3.45
2023-05-18T20:09:00.783Z,3.20
2023-05-18T20:12:03.069Z,2.97
2023-05-18T20:15:05.520Z,2.87
2023-05-18T20:18:08.636Z,3.00
2023-05-18T20:21:10.838Z,3.13
2023-05-18T20:24:13.036Z,3.20
2023-05-18T20:27:15.862Z,3.40
2023-05-18T20:30:17.436Z,3.15
2023-05-18T20:33:20.411Z,2.90
2023-05-18T20:36:22.715Z,2.60
2023-05-18T20:39:26.171Z,2.70
2023-05-18T20:42:38.647Z,2.78
2023-05-18T20:45:41.451Z,2.90
2023-05-18T20:48:44.822Z,2.70
2023-05-18T20:51:46.400Z,2.90
2023-05-18T20:54:48.011Z,2.70
2023-05-18T20:57:51.437Z,2.83
2023-05-18T21:00:55.492Z,2.78
2023-05-18T21:03:59.894Z,2.70
2023-05-18T21:07:02.169Z,2.72
2023-05-18T21:10:09.732Z,2.40
2023-05-18T21:13:14.597Z,2.33
2023-05-18T21:16:17.104Z,2.20
2023-05-18T21:19:19.717Z,2.40
2023-05-18T21:22:21.995Z,2.60
2023-05-18T21:25:24.407Z,2.30
2023-05-18T21:28:27.069Z,2.30
2023-05-18T21:31:29.185Z,2.50
2023-05-18T21:34:32.033Z,2.40
2023-05-18T21:37:35.869Z,2.20
2023-05-18T21:41:03.458Z,2.17
2023-05-18T21:44:10.032Z,2.40
2023-05-18T21:47:12.039Z,2.28
2023-05-18T21:50:16.834Z,2.45
2023-05-18T21:53:19.266Z,2.20
2023-05-18T21:56:21.484Z,2.40
2023-05-18T21:59:23.503Z,2.47
2023-05-18T22:02:25.880Z,2.70
2023-05-18T22:05:34.012Z,2.40
2023-05-18T22:08:38.625Z,2.33
2023-05-18T22:11:40.781Z,2.60
2023-05-18T22:14:42.844Z,2.80
2023-05-18T22:17:46.146Z,2.70
2023-05-18T22:20:48.300Z,2.67
2023-05-18T22:23:49.875Z,2.80
2023-05-18T22:26:51.978Z,2.60
2023-05-18T22:29:57.270Z,2.90
2023-05-18T22:33:00.749Z,2.78
2023-05-18T22:36:03.226Z,2.92
2023-05-18T22:39:05.443Z,2.90
2023-05-18T22:42:08.301Z,3.10
2023-05-18T22:45:11.934Z,2.90
2023-05-18T22:48:14.124Z,2.95
2023-05-18T22:51:18.094Z,3.13
2023-05-18T22:54:20.174Z,3.25
2023-05-18T22:57:22.205Z,2.95
2023-05-18T23:00:24.017Z,3.20
2023-05-18T23:03:25.687Z,3.20
2023-05-18T23:06:27.356Z,3.35
2023-05-18T23:09:30.549Z,3.20
2023-05-18T23:12:34.675Z,3.10
2023-05-18T23:15:37.193Z,3.30
2023-05-18T23:18:39.224Z,3.30
2023-05-18T23:21:41.152Z,3.47
2023-05-18T23:24:43.476Z,3.28
2023-05-18T23:27:45.486Z,3.42
2023-05-18T23:30:47.371Z,3.53
2023-05-18T23:33:51.733Z,3.30
2023-05-18T23:36:54.510Z,3.40
2023-05-18T23:39:57.664Z,3.30
2023-05-18T23:43:03.550Z,3.23
2023-05-18T23:46:06.680Z,3.88
2023-05-18T23:49:09.410Z,3.17
2023-05-18T23:52:13.941Z,3.60
2023-05-18T23:55:22.149Z,3.58
2023-05-18T23:58:32.187Z,3.63
